createdAt,value
2017-09-16T00:02:02.531Z,7.30
2017-09-16T00:04:30.029Z,7.20
2017-09-16T00:06:57.501Z,7.20
2017-09-16T00:09:24.994Z,7.20
2017-09-16T00:11:52.475Z,7.10
2017-09-16T00:14:20.359Z,7.10
2017-09-16T00:16:47.843Z,7.10
2017-09-16T00:19:15.341Z,7.10
2017-09-16T00:21:42.850Z,7.10
2017-09-16T00:24:10.341Z,7.10
2017-09-16T00:26:37.823Z,7.00
2017-09-16T00:29:05.722Z,7.10
2017-09-16T00:31:34.167Z,7.10
2017-09-16T00:34:02.049Z,7.00
2017-09-16T00:36:29.525Z,7.00
2017-09-16T00:38:57.030Z,7.00
2017-09-16T00:41:24.507Z,7.00
2017-09-16T00:43:52.381Z,6.90
2017-09-16T00:46:20.267Z,6.90
2017-09-16T00:48:47.734Z,6.90
2017-09-16T00:51:15.232Z,6.90
2017-09-16T00:53:42.702Z,6.90
2017-09-16T00:56:10.623Z,6.80
2017-09-16T00:58:38.106Z,6.80
2017-09-16T01:01:05.594Z,6.80
2017-09-16T01:03:33.461Z,6.80
2017-09-16T01:06:01.352Z,6.70
2017-09-16T01:08:29.664Z,6.70
2017-09-16T01:10:57.169Z,6.70
2017-09-16T01:13:25.039Z,6.70
2017-09-16T01:15:54.538Z,6.70
2017-09-16T01:18:22.398Z,6.70
2017-09-16T01:20:52.213Z,6.60
2017-09-16T01:23:21.030Z,6.60
2017-09-16T01:25:48.514Z,6.60
2017-09-16T01:28:15.996Z,6.50
2017-09-16T01:30:43.494Z,6.50
2017-09-16T01:33:10.975Z,6.60
2017-09-16T01:35:38.479Z,6.60
2017-09-16T01:38:06.356Z,6.60
2017-09-16T01:40:34.252Z,6.70
2017-09-16T01:43:01.731Z,6.70
2017-09-16T01:45:29.230Z,6.60
2017-09-16T01:47:57.103Z,6.40
2017-09-16T01:50:24.997Z,6.40
2017-09-16T01:52:52.466Z,6.40
2017-09-16T01:55:19.955Z,6.50
2017-09-16T01:57:48.322Z,6.50
2017-09-16T02:00:15.835Z,6.60
2017-09-16T02:02:43.374Z,6.70
2017-09-16T02:05:10.896Z,6.70
2017-09-16T02:07:38.366Z,6.70
2017-09-16T02:10:13.758Z,6.70
2017-09-16T02:12:41.229Z,6.70
2017-09-16T02:15:08.729Z,6.60
2017-09-16T02:17:37.542Z,6.50
2017-09-16T02:20:05.039Z,6.50
2017-09-16T02:22:32.511Z,6.50
2017-09-16T02:25:00.006Z,6.60
2017-09-16T02:27:27.870Z,6.70
2017-09-16T02:29:55.763Z,6.60
2017-09-16T02:32:23.252Z,6.60
2017-09-16T02:34:51.638Z,6.60
2017-09-16T02:37:19.119Z,6.60
2017-09-16T02:39:47.060Z,6.70
2017-09-16T02:42:15.498Z,6.70
2017-09-16T02:44:43.020Z,6.70
2017-09-16T02:47:10.906Z,6.90
2017-09-16T02:49:38.415Z,6.90
2017-09-16T02:52:05.899Z,7.00
2017-09-16T02:54:33.798Z,7.20
2017-09-16T02:57:01.275Z,7.20
2017-09-16T02:59:29.695Z,7.20
2017-09-16T03:01:57.185Z,7.20
2017-09-16T03:04:26.647Z,7.20
2017-09-16T03:06:54.127Z,7.30
2017-09-16T03:09:22.079Z,7.30
2017-09-16T03:11:50.487Z,7.30
2017-09-16T03:14:17.987Z,7.40
2017-09-16T03:16:45.458Z,7.40
2017-09-16T03:19:12.958Z,7.40
2017-09-16T03:21:40.499Z,7.40
2017-09-16T03:24:08.400Z,7.30
2017-09-16T03:26:35.889Z,7.30
2017-09-16T03:29:03.390Z,7.40
2017-09-16T03:31:31.262Z,7.40
2017-09-16T03:33:58.766Z,7.40
2017-09-16T03:36:26.250Z,7.40
2017-09-16T03:38:53.739Z,7.40
2017-09-16T03:41:21.254Z,7.40
2017-09-16T03:43:48.739Z,7.40
2017-09-16T03:46:16.630Z,7.40
2017-09-16T03:48:44.146Z,7.40
2017-09-16T03:51:11.635Z,7.40
2017-09-16T03:53:39.146Z,7.30
2017-09-16T03:56:06.624Z,7.30
2017-09-16T03:58:34.515Z,7.30
2017-09-16T04:01:02.019Z,7.30
2017-09-16T04:03:29.522Z,7.30
2017-09-16T04:05:57.387Z,7.30
2017-09-16T04:08:25.274Z,7.20
2017-09-16T04:10:52.833Z,7.20
2017-09-16T04:13:20.323Z,7.10
2017-09-16T04:15:49.187Z,7.00
2017-09-16T04:18:16.727Z,7.00
2017-09-16T04:20:44.198Z,6.90
2017-09-16T04:23:11.698Z,6.90
2017-09-16T04:25:39.191Z,7.00
2017-09-16T04:28:06.710Z,7.00
2017-09-16T04:30:34.190Z,7.00
2017-09-16T04:33:02.079Z,7.10
2017-09-16T04:35:30.515Z,7.10
2017-09-16T04:37:58.024Z,7.00
2017-09-16T04:40:25.503Z,7.00
2017-09-16T04:42:52.999Z,6.90
2017-09-16T04:45:20.886Z,7.00
2017-09-16T04:47:48.782Z,7.00
2017-09-16T04:50:16.274Z,7.00
2017-09-16T04:52:43.774Z,6.90
2017-09-16T04:55:12.227Z,6.90
2017-09-16T04:57:40.599Z,7.00
2017-09-16T05:00:08.075Z,6.90
2017-09-16T05:02:35.967Z,6.90
2017-09-16T05:05:03.446Z,6.90
2017-09-16T05:07:30.950Z,6.90
2017-09-16T05:09:58.832Z,6.80
2017-09-16T05:12:26.331Z,6.80
2017-09-16T05:14:53.816Z,6.80
2017-09-16T05:17:22.347Z,6.80
2017-09-16T05:19:49.851Z,6.80
2017-09-16T05:22:17.330Z,6.80
2017-09-16T05:24:45.206Z,6.80
2017-09-16T05:27:12.709Z,6.80
2017-09-16T05:29:40.196Z,6.70
2017-09-16T05:32:07.691Z,6.70
2017-09-16T05:34:35.180Z,6.70
2017-09-16T05:37:02.671Z,6.80
2017-09-16T05:39:30.583Z,6.80
2017-09-16T05:41:58.078Z,6.80
2017-09-16T05:44:25.587Z,6.90
2017-09-16T05:46:53.086Z,7.00
2017-09-16T05:49:20.566Z,7.10
2017-09-16T05:51:48.464Z,7.10
2017-09-16T05:54:15.965Z,7.10
2017-09-16T05:56:43.589Z,7.10
2017-09-16T05:59:11.102Z,7.10
2017-09-16T06:01:38.615Z,7.10
2017-09-16T06:04:08.108Z,6.90
2017-09-16T06:06:35.590Z,6.90
2017-09-16T06:09:03.104Z,6.80
2017-09-16T06:11:30.588Z,7.00
2017-09-16T06:13:58.062Z,7.20
2017-09-16T06:16:25.558Z,7.60
2017-09-16T06:18:53.463Z,7.50
2017-09-16T06:21:21.020Z,7.50
2017-09-16T06:23:48.500Z,7.60
2017-09-16T06:26:15.978Z,7.50
2017-09-16T06:28:43.504Z,7.50
2017-09-16T06:31:10.974Z,7.50
2017-09-16T06:33:39.397Z,7.50
2017-09-16T06:36:07.275Z,7.80
2017-09-16T06:38:34.767Z,7.80
2017-09-16T06:41:02.270Z,8.00
2017-09-16T06:43:30.221Z,8.20
2017-09-16T06:45:58.209Z,8.50
2017-09-16T06:48:25.723Z,8.50
2017-09-16T06:50:53.212Z,8.60
2017-09-16T06:53:20.712Z,8.50
2017-09-16T06:55:48.250Z,8.50
2017-09-16T06:58:17.166Z,8.50
2017-09-16T07:00:44.650Z,8.50
2017-09-16T07:03:12.139Z,8.70
2017-09-16T07:05:40.030Z,8.80
2017-09-16T07:08:07.515Z,8.80
2017-09-16T07:10:35.015Z,8.60
2017-09-16T07:13:02.506Z,8.50
2017-09-16T07:15:30.015Z,8.50
2017-09-16T07:17:57.513Z,8.40
2017-09-16T07:20:24.999Z,8.40
2017-09-16T07:22:52.506Z,8.30
2017-09-16T07:25:20.441Z,8.60
2017-09-16T07:27:47.955Z,8.70
2017-09-16T07:30:15.466Z,8.80
2017-09-16T07:32:42.951Z,8.80
2017-09-16T07:35:10.875Z,9.10
2017-09-16T07:37:38.372Z,9.10
2017-09-16T07:40:06.261Z,9.30
2017-09-16T07:42:33.826Z,9.30
2017-09-16T07:45:02.794Z,9.40
2017-09-16T07:47:30.394Z,9.50
2017-09-16T07:49:58.638Z,9.60
2017-09-16T07:52:26.588Z,9.70
2017-09-16T07:54:54.519Z,9.80
2017-09-16T07:57:22.146Z,9.80
2017-09-16T07:59:49.649Z,9.80
2017-09-16T08:02:17.267Z,9.80
2017-09-16T08:04:44.760Z,9.90
2017-09-16T08:07:13.456Z,10.00
2017-09-16T08:09:40.977Z,9.90
2017-09-16T08:12:09.435Z,9.60
2017-09-16T08:14:36.999Z,9.50
2017-09-16T08:17:04.507Z,9.60
2017-09-16T08:19:32.004Z,9.60
2017-09-16T08:21:59.511Z,9.60
2017-09-16T08:24:27.002Z,9.60
2017-09-16T08:26:56.865Z,9.50
2017-09-16T08:29:24.384Z,9.50
2017-09-16T08:31:51.918Z,9.60
2017-09-16T08:34:20.331Z,9.60
2017-09-16T08:36:47.899Z,9.60
2017-09-16T08:39:15.391Z,9.80
2017-09-16T08:41:42.916Z,9.80
2017-09-16T08:44:10.431Z,10.10
2017-09-16T08:46:37.936Z,10.30
2017-09-16T08:49:05.446Z,10.40
2017-09-16T08:51:32.955Z,10.40
2017-09-16T08:54:02.163Z,10.20
2017-09-16T08:56:29.695Z,10.20
2017-09-16T08:58:58.655Z,10.30
2017-09-16T09:01:26.595Z,10.60
2017-09-16T09:03:54.078Z,10.60
2017-09-16T09:06:21.570Z,10.70
2017-09-16T09:08:49.353Z,10.90
2017-09-16T09:11:16.880Z,10.80
2017-09-16T09:13:44.979Z,11.00
2017-09-16T09:16:12.478Z,11.00
2017-09-16T09:18:39.982Z,11.10
2017-09-16T09:21:07.504Z,11.20
2017-09-16T09:23:35.420Z,11.10
2017-09-16T09:26:03.804Z,11.10
2017-09-16T09:28:31.340Z,10.90
2017-09-16T09:30:58.858Z,11.00
2017-09-16T09:33:26.382Z,11.40
2017-09-16T09:35:53.945Z,11.60
2017-09-16T09:38:21.430Z,11.70
2017-09-16T09:40:48.979Z,12.00
2017-09-16T09:43:17.223Z,12.10
2017-09-16T09:45:44.728Z,12.20
2017-09-16T09:48:12.230Z,12.30
2017-09-16T09:50:39.782Z,12.30
2017-09-16T09:53:07.309Z,12.20
2017-09-16T09:55:34.854Z,12.20
2017-09-16T09:58:02.446Z,12.10
2017-09-16T10:00:29.966Z,12.10
2017-09-16T10:02:57.475Z,12.10
2017-09-16T10:05:24.986Z,12.10
2017-09-16T10:07:53.390Z,12.10
2017-09-16T10:10:21.298Z,12.20
2017-09-16T10:12:48.811Z,12.20
2017-09-16T10:15:16.710Z,12.30
2017-09-16T10:17:44.219Z,12.30
2017-09-16T10:20:11.723Z,12.30
2017-09-16T10:22:39.250Z,12.40
2017-09-16T10:25:07.155Z,12.50
2017-09-16T10:27:36.627Z,12.50
2017-09-16T10:30:04.162Z,12.60
2017-09-16T10:32:31.666Z,12.60
2017-09-16T10:35:00.056Z,12.80
2017-09-16T10:37:27.558Z,12.90
2017-09-16T10:39:55.450Z,13.10
2017-09-16T10:42:22.966Z,13.10
2017-09-16T10:44:50.470Z,13.30
2017-09-16T10:47:17.984Z,13.30
2017-09-16T10:49:45.473Z,13.40
2017-09-16T10:52:12.990Z,13.50
2017-09-16T10:54:40.484Z,13.50
2017-09-16T10:57:10.364Z,13.60
2017-09-16T10:59:37.861Z,13.60
2017-09-16T11:02:07.314Z,13.60
2017-09-16T11:04:34.806Z,13.70
2017-09-16T11:07:02.798Z,13.90
2017-09-16T11:09:31.259Z,13.90
2017-09-16T11:12:01.123Z,14.10
2017-09-16T11:14:28.618Z,14.10
2017-09-16T11:16:56.617Z,14.20
2017-09-16T11:19:24.133Z,14.20
2017-09-16T11:21:51.646Z,14.40
2017-09-16T11:24:19.143Z,14.40
2017-09-16T11:26:46.647Z,14.40
2017-09-16T11:29:14.137Z,14.50
2017-09-16T11:31:41.680Z,14.40
2017-09-16T11:34:09.175Z,15.50
2017-09-16T11:36:36.744Z,16.20
2017-09-16T11:39:04.634Z,17.10
2017-09-16T11:41:32.548Z,17.10
2017-09-16T11:44:00.032Z,17.20
2017-09-16T11:46:27.523Z,17.30
2017-09-16T11:48:55.023Z,16.60
2017-09-16T11:51:22.536Z,15.90
2017-09-16T11:53:50.031Z,15.50
2017-09-16T11:56:17.546Z,15.40
2017-09-16T11:58:45.027Z,15.40
2017-09-16T12:01:12.547Z,15.40
2017-09-16T12:03:40.031Z,15.50
2017-09-16T12:06:09.511Z,15.40
2017-09-16T12:08:37.400Z,15.30
2017-09-16T12:11:04.914Z,15.30
2017-09-16T12:13:32.398Z,15.30
2017-09-16T12:15:59.906Z,15.40
2017-09-16T12:18:27.407Z,15.50
2017-09-16T12:20:55.315Z,15.60
2017-09-16T12:23:23.739Z,15.60
2017-09-16T12:25:51.642Z,15.60
2017-09-16T12:28:19.149Z,15.60
2017-09-16T12:30:46.660Z,15.60
2017-09-16T12:33:14.174Z,15.70
2017-09-16T12:35:41.683Z,15.70
2017-09-16T12:38:09.174Z,15.80
2017-09-16T12:40:36.690Z,15.80
2017-09-16T12:43:04.188Z,15.90
2017-09-16T12:45:31.699Z,15.90
2017-09-16T12:47:59.183Z,16.00
2017-09-16T12:50:26.686Z,16.10
2017-09-16T12:52:54.179Z,16.10
2017-09-16T12:55:21.712Z,16.20
2017-09-16T12:57:49.586Z,16.40
2017-09-16T13:00:17.485Z,16.40
2017-09-16T13:02:44.989Z,16.40
2017-09-16T13:05:13.739Z,16.40
2017-09-16T13:07:41.218Z,16.40
2017-09-16T13:10:08.722Z,16.50
2017-09-16T13:12:36.211Z,16.50
2017-09-16T13:15:04.731Z,16.50
2017-09-16T13:17:32.217Z,16.50
2017-09-16T13:20:01.662Z,16.50
2017-09-16T13:22:29.150Z,16.40
2017-09-16T13:24:57.052Z,16.10
2017-09-16T13:27:24.548Z,16.10
2017-09-16T13:29:53.999Z,16.10
2017-09-16T13:32:21.486Z,16.10
2017-09-16T13:34:49.034Z,16.10
2017-09-16T13:37:17.466Z,16.20
2017-09-16T13:39:44.979Z,16.10
2017-09-16T13:42:12.471Z,15.70
2017-09-16T13:44:39.980Z,15.50
2017-09-16T13:47:07.474Z,15.20
2017-09-16T13:49:34.976Z,14.80
2017-09-16T13:52:02.464Z,14.50
2017-09-16T13:54:30.029Z,14.20
2017-09-16T13:56:57.522Z,14.00
2017-09-16T13:59:25.444Z,13.80
2017-09-16T14:01:53.920Z,13.80
2017-09-16T14:04:21.435Z,13.70
2017-09-16T14:06:49.382Z,13.70
2017-09-16T14:09:16.896Z,13.70
2017-09-16T14:11:44.391Z,13.60
2017-09-16T14:14:12.498Z,13.70
2017-09-16T14:16:40.403Z,13.70
2017-09-16T14:19:07.900Z,13.70
2017-09-16T14:21:35.415Z,13.50
2017-09-16T14:24:02.904Z,13.40
2017-09-16T14:26:30.426Z,13.40
2017-09-16T14:28:57.933Z,13.40
2017-09-16T14:31:25.444Z,13.40
2017-09-16T14:33:53.179Z,13.60
2017-09-16T14:36:22.060Z,13.60
2017-09-16T14:38:50.361Z,13.50
2017-09-16T14:41:20.463Z,13.30
2017-09-16T14:43:48.115Z,13.30
2017-09-16T14:46:16.773Z,13.10
2017-09-16T14:48:45.062Z,13.10
2017-09-16T14:51:22.414Z,13.20
2017-09-16T14:53:50.875Z,13.10
2017-09-16T14:56:19.596Z,13.20
2017-09-16T14:58:47.212Z,13.20
2017-09-16T15:01:17.516Z,13.30
2017-09-16T15:03:45.435Z,13.30
2017-09-16T15:06:13.118Z,13.20
2017-09-16T15:08:40.793Z,13.20
2017-09-16T15:11:09.685Z,13.40
2017-09-16T15:13:37.743Z,13.40
2017-09-16T15:16:06.941Z,13.40
2017-09-16T15:18:34.603Z,13.40
2017-09-16T15:21:03.544Z,13.50
2017-09-16T15:23:31.816Z,13.50
2017-09-16T15:28:35.060Z,13.40
2017-09-16T15:31:02.694Z,13.40
2017-09-16T15:33:32.937Z,13.40
2017-09-16T15:36:04.609Z,13.20
2017-09-16T15:38:32.119Z,13.20
2017-09-16T15:40:59.661Z,13.00
2017-09-16T15:43:27.212Z,13.00
2017-09-16T15:45:55.121Z,12.90
2017-09-16T15:48:22.626Z,12.90
2017-09-16T15:50:51.488Z,12.70
2017-09-16T15:53:19.773Z,12.70
2017-09-16T15:55:47.299Z,12.70
2017-09-16T15:58:14.794Z,12.60
2017-09-16T16:00:44.235Z,12.60
2017-09-16T16:03:11.735Z,12.70
2017-09-16T16:05:39.338Z,12.70
2017-09-16T16:08:07.244Z,12.70
2017-09-16T16:10:34.731Z,12.70
2017-09-16T16:13:02.214Z,12.60
2017-09-16T16:15:30.126Z,12.70
2017-09-16T16:17:57.644Z,12.70
2017-09-16T16:20:25.189Z,12.60
2017-09-16T16:22:52.723Z,12.60
2017-09-16T16:25:20.672Z,12.50
2017-09-16T16:27:49.134Z,12.50
2017-09-16T16:30:16.659Z,12.40
2017-09-16T16:32:44.583Z,12.50
2017-09-16T16:35:12.083Z,12.50
2017-09-16T16:37:40.037Z,12.60
2017-09-16T16:40:07.554Z,12.60
2017-09-16T16:42:35.078Z,12.60
2017-09-16T16:45:03.485Z,12.60
2017-09-16T16:47:31.157Z,12.50
2017-09-16T16:49:58.755Z,12.50
2017-09-16T16:52:26.662Z,12.30
2017-09-16T16:54:54.184Z,12.30
2017-09-16T16:57:22.099Z,12.00
2017-09-16T16:59:49.639Z,12.00
2017-09-16T17:02:18.091Z,11.90
2017-09-16T17:04:45.614Z,11.90
2017-09-16T17:07:13.134Z,11.80
2017-09-16T17:09:40.664Z,11.60
2017-09-16T17:12:08.555Z,11.50
2017-09-16T17:14:36.065Z,11.50
2017-09-16T17:17:03.566Z,11.50
2017-09-16T17:19:31.058Z,11.50
2017-09-16T17:21:58.567Z,11.50
2017-09-16T17:24:26.489Z,11.50
2017-09-16T17:26:54.004Z,11.50
2017-09-16T17:29:21.594Z,11.50
2017-09-16T17:31:49.165Z,11.50
2017-09-16T17:34:16.735Z,11.40
2017-09-16T17:36:44.283Z,11.30
2017-09-16T17:39:11.785Z,11.30
2017-09-16T17:41:39.669Z,11.20
2017-09-16T17:44:09.163Z,11.20
2017-09-16T17:46:36.683Z,11.10
2017-09-16T17:49:04.223Z,11.10
2017-09-16T17:51:31.678Z,11.00
2017-09-16T17:53:59.209Z,10.90
2017-09-16T17:56:26.715Z,10.80
2017-09-16T17:58:54.224Z,10.80
2017-09-16T18:01:21.730Z,10.70
2017-09-16T18:03:49.231Z,10.70
2017-09-16T18:06:16.759Z,10.60
2017-09-16T18:08:44.300Z,10.60
2017-09-16T18:11:11.824Z,10.60
2017-09-16T18:13:39.347Z,10.60
2017-09-16T18:16:07.261Z,10.80
2017-09-16T18:18:34.775Z,10.70
2017-09-16T18:21:02.677Z,10.80
2017-09-16T18:23:30.201Z,10.80
2017-09-16T18:25:58.084Z,10.80
2017-09-16T18:28:25.588Z,10.70
2017-09-16T18:30:54.017Z,10.80
2017-09-16T18:33:21.552Z,10.80
2017-09-16T18:35:49.446Z,10.90
2017-09-16T18:38:18.919Z,10.90
2017-09-16T18:40:47.754Z,10.80
2017-09-16T18:43:15.281Z,10.80
2017-09-16T18:45:43.244Z,10.70
2017-09-16T18:48:11.110Z,10.80
2017-09-16T18:50:39.043Z,10.80
2017-09-16T18:53:06.587Z,10.80
2017-09-16T18:55:34.091Z,10.90
2017-09-16T18:58:02.006Z,11.00
2017-09-16T19:00:29.559Z,11.00
2017-09-16T19:02:57.067Z,10.90
2017-09-16T19:05:24.948Z,10.90
2017-09-16T19:07:53.912Z,10.90
2017-09-16T19:10:21.438Z,10.90
2017-09-16T19:12:49.914Z,10.90
2017-09-16T19:15:17.456Z,10.80
2017-09-16T19:17:44.965Z,10.80
2017-09-16T19:20:12.489Z,10.70
2017-09-16T19:22:40.927Z,10.60
2017-09-16T19:25:08.433Z,10.60
2017-09-16T19:27:36.451Z,10.70
2017-09-16T19:30:04.053Z,10.70
2017-09-16T19:32:31.588Z,10.70
2017-09-16T19:35:01.131Z,10.70
2017-09-16T19:37:28.622Z,10.70
2017-09-16T19:39:56.549Z,10.80
2017-09-16T19:42:24.678Z,10.80
2017-09-16T19:44:52.593Z,10.70
2017-09-16T19:47:21.158Z,10.70
2017-09-16T19:49:48.671Z,10.70
2017-09-16T19:52:16.551Z,10.60
2017-09-16T19:54:44.534Z,10.60
2017-09-16T19:57:12.855Z,10.60
2017-09-16T19:59:40.386Z,10.70
2017-09-16T20:02:08.113Z,10.70
2017-09-16T20:04:35.760Z,10.70
2017-09-16T20:07:03.659Z,10.70
2017-09-16T20:09:31.185Z,10.70
2017-09-16T20:11:59.626Z,10.70
2017-09-16T20:14:27.127Z,10.60
2017-09-16T20:16:55.026Z,10.70
2017-09-16T20:19:22.555Z,10.70
2017-09-16T20:21:50.462Z,10.60
2017-09-16T20:24:17.972Z,10.60
2017-09-16T20:26:46.831Z,10.60
2017-09-16T20:29:14.347Z,10.60
2017-09-16T20:31:41.834Z,10.60
2017-09-16T20:34:09.355Z,10.60
2017-09-16T20:36:36.848Z,10.50
2017-09-16T20:39:04.377Z,10.50
2017-09-16T20:41:31.866Z,10.50
2017-09-16T20:43:59.384Z,10.50
2017-09-16T20:46:27.302Z,10.40
2017-09-16T20:48:54.805Z,10.40
2017-09-16T20:51:22.720Z,10.40
2017-09-16T20:53:50.241Z,10.40
2017-09-16T20:56:17.739Z,10.40
2017-09-16T20:58:47.323Z,10.40
2017-09-16T21:01:14.872Z,10.40
2017-09-16T21:03:43.788Z,10.30
2017-09-16T21:06:11.346Z,10.30
2017-09-16T21:08:38.907Z,10.10
2017-09-16T21:11:06.414Z,10.00
2017-09-16T21:13:34.309Z,9.90
2017-09-16T21:16:01.830Z,9.90
2017-09-16T21:18:29.739Z,9.80
2017-09-16T21:20:57.234Z,9.90
2017-09-16T21:23:25.779Z,9.80
2017-09-16T21:25:53.264Z,9.80
2017-09-16T21:28:20.798Z,9.70
2017-09-16T21:30:48.290Z,9.70
2017-09-16T21:33:16.769Z,9.60
2017-09-16T21:35:44.291Z,9.70
2017-09-16T21:38:11.823Z,9.80
2017-09-16T21:40:39.350Z,9.80
2017-09-16T21:43:07.237Z,9.70
2017-09-16T21:45:35.147Z,9.60
2017-09-16T21:48:02.635Z,9.60
2017-09-16T21:50:30.146Z,9.50
2017-09-16T21:52:58.608Z,9.40
2017-09-16T21:55:26.115Z,9.50
2017-09-16T21:57:53.597Z,9.40
2017-09-16T22:00:21.528Z,9.40
2017-09-16T22:02:49.031Z,9.40
2017-09-16T22:05:16.933Z,9.20
2017-09-16T22:07:45.362Z,9.20
2017-09-16T22:10:13.257Z,9.20
2017-09-16T22:12:41.151Z,9.20
2017-09-16T22:15:08.732Z,9.20
2017-09-16T22:17:36.237Z,9.20
2017-09-16T22:20:04.607Z,9.20
2017-09-16T22:22:33.034Z,9.10
2017-09-16T22:25:01.578Z,9.10
2017-09-16T22:27:29.140Z,9.00
2017-09-16T22:29:56.895Z,9.00
2017-09-16T22:32:24.476Z,8.90
2017-09-16T22:34:52.039Z,8.90
2017-09-16T22:37:20.404Z,8.90
2017-09-16T22:39:47.899Z,8.90
2017-09-16T22:42:17.322Z,8.80
2017-09-16T22:44:44.807Z,8.70
2017-09-16T22:47:12.727Z,8.70
2017-09-16T22:49:40.327Z,8.70
2017-09-16T22:52:08.740Z,8.70
2017-09-16T22:54:36.342Z,8.60
2017-09-16T22:57:04.002Z,8.60
2017-09-16T22:59:32.252Z,8.60
2017-09-16T23:01:59.822Z,8.60
2017-09-16T23:04:29.279Z,8.50
2017-09-16T23:06:59.764Z,8.50
2017-09-16T23:09:28.925Z,8.60
2017-09-16T23:11:57.021Z,8.50
2017-09-16T23:14:24.955Z,8.50
2017-09-16T23:16:53.369Z,8.50
2017-09-16T23:19:20.940Z,8.50
2017-09-16T23:21:48.547Z,8.50
2017-09-16T23:24:16.077Z,8.40
2017-09-16T23:26:43.791Z,8.40
2017-09-16T23:29:11.461Z,8.30
2017-09-16T23:31:39.081Z,8.20
2017-09-16T23:34:08.687Z,8.30
2017-09-16T23:36:37.352Z,8.20
2017-09-16T23:39:05.375Z,8.20
2017-09-16T23:41:33.364Z,8.20
2017-09-16T23:44:01.022Z,8.10
2017-09-16T23:46:30.273Z,7.90
2017-09-16T23:48:57.917Z,7.90
2017-09-16T23:51:26.512Z,7.90
2017-09-16T23:53:54.224Z,7.80
2017-09-16T23:56:21.806Z,7.80
2017-09-16T23:58:49.407Z,7.70
